• Join FlightAware (Why Join?)
  • Login
  • US Flag 
10:37PM EDT


 

Airport Tracker/Info


-or-


 

Live Flight TrackerFlight Track Log ✈ N828AF ✈ 21-Apr-2013 ✈ KCHS - KMQJ

Flight Track Log - Related Links

Times and Time Zones

All times are in EDT time to prevent confusion due to time zone crossing. See the N828AF flight status page for this flight to view local times or setup timezone preferences in your user account.

Time Position Orientation Groundspeed Altitude Reporting Facility
EDT Latitude Longitude Course Direction KTS MPH feet Rate Location/Type
02:27PM 32.9886 -80.0544 331° Northwest 235 270 6,100  Level Jacksonville Center
02:28PM 33.0169 -80.1181 298° West 236 272 7,800 1,740 Climbing Jacksonville Center
02:29PM 33.0542 -80.1886 302° West 236 272 9,600 1,740 Climbing Jacksonville Center
02:30PM 33.1197 -80.2389 327° Northwest 254 292 11,300 1,860 Climbing Jacksonville Center
02:31PM 33.1878 -80.2889 328° Northwest 265 305 13,400 1,980 Climbing Jacksonville Center
02:32PM 33.3291 -80.3638 331° Northwest  Level FlightAware Approximate
02:32PM 33.2428 -80.3294 328° Northwest 267 307 15,300  Level Jacksonville Center
02:33PM 33.3064 -80.3800 326° Northwest 267 307 16,800 1,500 Climbing Jacksonville Center
02:34PM 33.3742 -80.4303 328° Northwest 272 313 18,300 1,560 Climbing Jacksonville Center
02:35PM 33.4397 -80.4806 327° Northwest 277 319 20,000 1,620 Climbing Jacksonville Center
02:36PM 33.5075 -80.5311 328° Northwest 277 319 21,600 1,560 Climbing Jacksonville Center
02:37PM 33.5753 -80.5842 327° Northwest 283 326 23,200 1,500 Climbing Jacksonville Center
02:38PM 33.6408 -80.6347 327° Northwest 283 326 24,700 1,500 Climbing Jacksonville Center
02:39PM 33.7086 -80.6881 327° Northwest 283 326 26,300 1,500 Climbing Jacksonville Center
02:40PM 33.7886 -80.7261 338° Northwest 288 331 27,800 1,440 Climbing Jacksonville Center
02:41PM 33.8683 -80.7592 341° North 299 344 29,200 1,320 Climbing Jacksonville Center
02:42PM 33.9400 -80.8000 335° Northwest 294 338 30,500 1,200 Climbing Jacksonville Center
02:43PM 34.0036 -80.8533 325° Northwest 287 330 31,600 1,020 Climbing Jacksonville Center
02:45PM 34.1356 -80.9594 326° Northwest 276 318 33,600 960 Climbing Atlanta Center
02:46PM 34.1950 -81.0050 328° Northwest 279 321 34,500 660 Climbing Atlanta Center
02:47PM 34.2611 -81.0578 327° Northwest 279 321 35,000 240 Climbing Atlanta Center
02:48PM 34.3314 -81.1133 327° Northwest 290 334 35,000  Level Atlanta Center
02:49PM 34.4100 -81.1736 328° Northwest 317 365 35,000 60 Level Atlanta Center
02:50PM 34.4908 -81.2414 325° Northwest 344 396 35,200 420 Climbing Atlanta Center
02:51PM 34.5650 -81.2994 327° Northwest 340 391 35,900 360 Climbing Atlanta Center
02:52PM 34.6458 -81.3650 326° Northwest 334 384 36,000  Climbing Atlanta Center
02:53PM 34.7331 -81.4381 325° Northwest 342 394 36,000  Level Atlanta Center
02:54PM 34.8158 -81.5036 327° Northwest 347 399 36,000  Level Atlanta Center
02:55PM 34.8964 -81.5672 327° Northwest 355 409 36,000  Level Atlanta Center
02:56PM 34.9811 -81.6381 326° Northwest 355 409 36,000  Level Atlanta Center
02:57PM 35.0681 -81.7092 326° Northwest 361 415 36,000  Level Atlanta Center
02:58PM 35.1528 -81.7753 327° Northwest 367 422 36,000  Level Atlanta Center
02:59PM 35.2397 -81.8467 326° Northwest 367 422 36,000  Level Atlanta Center
03:00PM 35.3139 -81.9083 326° Northwest 367 422 36,000  Level Atlanta Center
03:01PM 35.4006 -81.9775 327° Northwest 367 422 36,000  Level Atlanta Center
03:02PM 35.4892 -82.0467 328° Northwest 372 428 36,000  Level Atlanta Center
03:03PM 35.5761 -82.1211 325° Northwest 377 434 36,000  Level Atlanta Center
03:04PM 35.6711 -82.1983 327° Northwest 377 434 36,000  Level Atlanta Center
03:05PM 35.7514 -82.2628 327° Northwest 377 434 36,000  Level Atlanta Center
03:06PM 35.8358 -82.3353 325° Northwest 377 434 36,000  Level Atlanta Center
03:07PM 35.9244 -82.4078 326° Northwest 382 440 36,000  Level Atlanta Center
03:08PM 36.0108 -82.4806 326° Northwest 377 434 36,000  Level Atlanta Center
03:09PM 36.0994 -82.5558 326° Northwest 377 434 36,000  Level Atlanta Center
03:10PM 36.1942 -82.6367 325° Northwest 377 434 36,000  Level Atlanta Center
03:11PM 36.2825 -82.7097 326° Northwest 377 434 36,000  Level Atlanta Center
03:12PM 36.3711 -82.7856 325° Northwest 377 434 36,000  Level Atlanta Center
03:14PM 36.5439 -82.9333 326° Northwest 383 441 36,000  Level Indianapolis Center
03:15PM 36.6228 -83.0186 319° Northwest 377 434 36,000  Level Indianapolis Center
03:16PM 36.7178 -83.1169 320° Northwest 377 434 36,000  Level Indianapolis Center
03:17PM 36.7981 -83.2039 319° Northwest 377 434 36,000  Level Indianapolis Center
03:18PM 36.8789 -83.2894 320° Northwest 377 434 36,000  Level Indianapolis Center
03:19PM 36.9589 -83.3744 320° Northwest 375 432 36,000  Level Indianapolis Center
03:20PM 37.0392 -83.4600 320° Northwest 376 433 36,000  Level Indianapolis Center
03:21PM 37.1200 -83.5444 320° Northwest 375 432 36,000  Level Indianapolis Center
03:22PM 37.1992 -83.6294 319° Northwest 372 428 36,000  Level Indianapolis Center
03:23PM 37.2914 -83.7297 319° Northwest 374 430 36,000  Level Indianapolis Center
03:24PM 37.3711 -83.8147 320° Northwest 374 430 36,000  Level Indianapolis Center
03:25PM 37.4486 -83.8992 319° Northwest 368 423 36,000  Level Indianapolis Center
03:26PM 37.5278 -83.9844 320° Northwest 372 428 36,000  Level Indianapolis Center
03:27PM 37.6069 -84.0714 319° Northwest 378 435 36,000  Level Indianapolis Center
03:29PM 37.6989 -84.1697 320° Northwest 371 427 36,000  Level Indianapolis Center
03:30PM 37.7789 -84.2550 320° Northwest 375 432 36,000  Level Indianapolis Center
03:31PM 37.8567 -84.3411 319° Northwest 374 430 36,000  Level Indianapolis Center
03:32PM 37.9344 -84.4272 319° Northwest 373 429 36,000  Level Indianapolis Center
03:33PM 38.0111 -84.5136 318° Northwest 369 425 36,000 -300 Level Indianapolis Center
03:34PM 38.0883 -84.6019 318° Northwest 370 426 35,400 -1,500 Descending Indianapolis Center
03:35PM 38.1908 -84.7111 320° Northwest 413 475 33,000 -1,980 Descending Indianapolis Center
03:36PM 38.2769 -84.8078 319° Northwest 413 475 31,400 -2,520 Descending Indianapolis Center
03:37PM 38.3578 -84.9008 318° Northwest 393 452 27,800 -3,240 Descending Indianapolis Center
03:38PM 38.4419 -84.9908 320° Northwest 393 452 24,800 -1,860 Descending Indianapolis Center
03:39PM 38.5156 -85.0753 318° Northwest 361 415 24,000 -1,080 Descending Indianapolis Center
03:40PM 38.5997 -85.1700 319° Northwest 346 398 22,600 -1,260 Descending Indianapolis Center
03:41PM 38.6689 -85.2519 317° Northwest 351 404 21,500 -1,260 Descending Indianapolis Center
03:42PM 38.7425 -85.3353 319° Northwest 353 406 20,000 -1,440 Descending Indianapolis Center
03:43PM 38.8169 -85.4183 319° Northwest 354 407 18,600 -1,200 Descending Indianapolis Center
03:44PM 38.8911 -85.5025 319° Northwest 354 407 17,600 -1,260 Descending Indianapolis Center
03:45PM 38.9631 -85.5850 318° Northwest 347 399 16,000 -1,620 Descending Indianapolis Center
03:46PM 39.0508 -85.6844 319° Northwest 350 403 14,300 -1,560 Descending Indianapolis Center
03:47PM 39.1344 -85.7181 343° North 327 376 12,800 -1,440 Descending Indianapolis Center
03:48PM 39.2236 -85.7386 350° North 323 372 11,400 -1,380 Descending Indianapolis Center
03:49PM 39.3081 -85.7608 348° North 317 365 10,000 -1,320 Descending Indianapolis Center
03:50PM 39.3858 -85.7817 348° North 301 346 8,700 -1,260 Descending Indianapolis Center
03:51PM 39.4589 -85.7994 349° North 287 330 7,500 -1,200 Descending Indianapolis Center
03:52PM 39.5308 -85.8172 349° North 276 318 6,300 -1,200 Descending Indianapolis Center